| time (UTC) | temp C | wind direction | speed KPH | gust KPH | rain 1hr cm | rain 24hr cm | rain mn cm | humidity % | barometer mb |
| 20260507211731 | 20 | 309 | 8.0 | 12.9 | 0.00 | 0.00 | 0.00 | 36 | 1009.2 |
| 20260507211228 | 20 | 164 | 1.6 | 6.4 | 0.00 | 0.00 | 0.00 | 33 | 1009.0 |
| 20260507210725 | 20 | 353 | 6.4 | 9.7 | 0.00 | 0.00 | 0.00 | 33 | 1009.2 |
| 20260507210222 | 19 | 343 | 3.2 | 4.8 | 0.00 | 0.00 | 0.00 | 34 | 1009.1 |
| 20260507205718 | 18 | 257 | 4.8 | 9.7 | 0.00 | 0.00 | 0.00 | 38 | 1009.2 |
| 20260507205215 | 18 | 341 | 11.3 | 20.9 | 0.00 | 0.00 | 0.00 | 34 | 1009.3 |
| 20260507204711 | 19 | 318 | 11.3 | 25.7 | 0.00 | 0.00 | 0.00 | 35 | 1009.1 |
| 20260507204209 | 19 | 246 | 11.3 | 20.9 | 0.00 | 0.00 | 0.00 | 35 | 1009.2 |
| 20260507203707 | 18 | 0 | 8.0 | 11.3 | 0.00 | 0.00 | 0.00 | 36 | 1009.1 |
| 20260507203204 | 20 | 351 | 6.4 | 14.5 | 0.00 | 0.00 | 0.00 | 35 | 1009.3 |
| 20260507202659 | 19 | 252 | 1.6 | 11.3 | 0.00 | 0.00 | 0.00 | 35 | 1009.2 |
| 20260507202155 | 20 | 17 | 6.4 | 12.9 | 0.00 | 0.00 | 0.00 | 35 | 1009.3 |
| 20260507201650 | 19 | 37 | 4.8 | 22.5 | 0.00 | 0.00 | 0.00 | 35 | 1009.3 |
| 20260507201148 | 20 | 355 | 6.4 | 20.9 | 0.00 | 0.00 | 0.00 | 33 | 1009.1 |
| 20260507200644 | 19 | 358 | 0.0 | 12.9 | 0.00 | 0.00 | 0.00 | 35 | 1009.1 |
| 20260507200140 | 20 | 297 | 11.3 | 22.5 | 0.00 | 0.00 | 0.00 | 36 | 1009.2 |
| 20260507195637 | 20 | 325 | 9.7 | 14.5 | 0.00 | 0.00 | 0.00 | 34 | 1009.1 |
| 20260507195134 | 20 | 337 | 6.4 | 25.7 | 0.00 | 0.00 | 0.00 | 35 | 1009.0 |
| 20260507194631 | 20 | 49 | 4.8 | 9.7 | 0.00 | 0.00 | 0.00 | 36 | 1009.1 |
| 20260507194126 | 20 | 59 | 8.0 | 12.9 | 0.00 | 0.00 | 0.00 | 36 | 1009.3 |
| 20260507193624 | 20 | 114 | 3.2 | 6.4 | 0.00 | 0.00 | 0.00 | 37 | 1009.4 |
| 20260507193121 | 20 | 50 | 9.7 | 14.5 | 0.00 | 0.00 | 0.00 | 34 | 1009.4 |
| 20260507192617 | 20 | 332 | 3.2 | 22.5 | 0.00 | 0.00 | 0.00 | 36 | 1009.3 |
| 20260507192114 | 20 | 8 | 3.2 | 12.9 | 0.00 | 0.00 | 0.00 | 35 | 1009.5 |
| 20260507191609 | 20 | 351 | 0.0 | 4.8 | 0.00 | 0.00 | 0.00 | 36 | 1009.7 |
| 20260507191107 | 19 | 4 | 6.4 | 9.7 | 0.00 | 0.00 | 0.00 | 36 | 1009.6 |
| 20260507190604 | 20 | 296 | 3.2 | 4.8 | 0.00 | 0.00 | 0.00 | 39 | 1009.6 |
| 20260507185600 | 20 | 15 | 1.6 | 3.2 | 0.00 | 0.00 | 0.00 | 39 | 1009.7 |
| 20260507185056 | 20 | 238 | 3.2 | 9.7 | 0.00 | 0.00 | 0.00 | 38 | 1009.9 |
| 20260507184555 | 19 | 285 | 6.4 | 12.9 | 0.00 | 0.00 | 0.00 | 39 | 1010.0 |
| 20260507184052 | 20 | 289 | 8.0 | 11.3 | 0.00 | 0.00 | 0.00 | 40 | 1010.2 |
| 20260507183548 | 18 | 261 | 12.9 | 20.9 | 0.00 | 0.00 | 0.00 | 44 | 1010.0 |
| 20260507183045 | 19 | 292 | 14.5 | 17.7 | 0.00 | 0.00 | 0.00 | 40 | 1010.0 |
| 20260507182542 | 19 | 351 | 6.4 | 14.5 | 0.00 | 0.00 | 0.00 | 37 | 1010.2 |
| 20260507182037 | 18 | 338 | 6.4 | 12.9 | 0.00 | 0.00 | 0.00 | 39 | 1010.1 |
| 20260507181535 | 18 | 4 | 4.8 | 20.9 | 0.00 | 0.00 | 0.00 | 42 | 1010.2 |
| 20260507181031 | 17 | 235 | 3.2 | 11.3 | 0.00 | 0.00 | 0.00 | 42 | 1010.1 |
| 20260507180527 | 17 | 3 | 1.6 | 6.4 | 0.00 | 0.00 | 0.00 | 43 | 1010.2 |
| 20260507180025 | 17 | 337 | 1.6 | 6.4 | 0.00 | 0.00 | 0.00 | 45 | 1010.3 |
| 20260507175521 | 17 | 272 | 8.0 | 14.5 | 0.00 | 0.00 | 0.00 | 44 | 1010.6 |
| 20260507175019 | 18 | 286 | 9.7 | 14.5 | 0.00 | 0.00 | 0.00 | 45 | 1010.6 |
| 20260507174515 | 18 | 250 | 3.2 | 6.4 | 0.00 | 0.00 | 0.00 | 49 | 1010.8 |
| 20260507174013 | 18 | 123 | 4.8 | 9.7 | 0.00 | 0.00 | 0.00 | 41 | 1010.7 |
| 20260507173510 | 18 | 39 | 1.6 | 9.7 | 0.00 | 0.00 | 0.00 | 43 | 1011.1 |
| 20260507173007 | 18 | 248 | 4.8 | 9.7 | 0.00 | 0.00 | 0.00 | 45 | 1011.1 |
| 20260507172503 | 17 | 213 | 3.2 | 3.2 | 0.00 | 0.00 | 0.00 | 44 | 1011.3 |
| 20260507172000 | 18 | 44 | 6.4 | 9.7 | 0.00 | 0.00 | 0.00 | 42 | 1011.3 |
| 20260507171455 | 17 | 50 | 3.2 | 9.7 | 0.00 | 0.00 | 0.00 | 46 | 1011.3 |
| 20260507170953 | 17 | 0 | 6.4 | 12.9 | 0.00 | 0.00 | 0.00 | 44 | 1011.4 |
| 20260507170449 | 17 | 92 | 6.4 | 16.1 | 0.00 | 0.00 | 0.00 | 45 | 1011.5 |
| 20260507165946 | 17 | 291 | 11.3 | 16.1 | 0.00 | 0.00 | 0.00 | 45 | 1011.5 |
| 20260507165442 | 17 | 53 | 1.6 | 16.1 | 0.00 | 0.00 | 0.00 | 48 | 1011.6 |
| 20260507164938 | 17 | 274 | 6.4 | 16.1 | 0.00 | 0.00 | 0.00 | 43 | 1011.8 |
| 20260507164435 | 17 | 263 | 4.8 | 11.3 | 0.00 | 0.00 | 0.00 | 50 | 1011.7 |
| 20260507163932 | 17 | 288 | 11.3 | 24.1 | 0.00 | 0.00 | 0.00 | 48 | 1011.7 |
| 20260507163429 | 17 | 268 | 1.6 | 20.9 | 0.00 | 0.00 | 0.00 | 46 | 1012.0 |
| 20260507162926 | 16 | 292 | 9.7 | 17.7 | 0.00 | 0.00 | 0.00 | 47 | 1012.1 |
| 20260507162421 | 16 | 359 | 3.2 | 12.9 | 0.00 | 0.00 | 0.00 | 48 | 1012.1 |
| 20260507161919 | 16 | 268 | 11.3 | 24.1 | 0.00 | 0.00 | 0.00 | 47 | 1012.3 |
| 20260507161415 | 17 | 284 | 3.2 | 12.9 | 0.00 | 0.00 | 0.00 | 46 | 1012.3 |
| 20260507160912 | 17 | 25 | 6.4 | 6.4 | 0.00 | 0.00 | 0.00 | 45 | 1012.6 |
| 20260507160408 | 17 | 281 | 3.2 | 4.8 | 0.00 | 0.00 | 0.00 | 47 | 1012.4 |
| 20260507155904 | 16 | 7 | 1.6 | 9.7 | 0.00 | 0.00 | 0.00 | 49 | 1012.4 |
| 20260507155400 | 16 | 297 | 6.4 | 11.3 | 0.00 | 0.00 | 0.00 | 49 | 1012.6 |
| 20260507154857 | 16 | 273 | 1.6 | 9.7 | 0.00 | 0.00 | 0.00 | 50 | 1012.5 |
| 20260507154354 | 15 | 25 | 1.6 | 6.4 | 0.00 | 0.00 | 0.00 | 48 | 1012.7 |
| 20260507153851 | 15 | 13 | 3.2 | 6.4 | 0.00 | 0.00 | 0.00 | 47 | 1012.9 |
| 20260507153347 | 16 | 326 | 6.4 | 11.3 | 0.00 | 0.00 | 0.00 | 47 | 1012.8 |
| 20260507152844 | 15 | 307 | 6.4 | 11.3 | 0.00 | 0.00 | 0.00 | 47 | 1012.9 |
| 20260507152340 | 15 | 270 | 4.8 | 12.9 | 0.00 | 0.00 | 0.00 | 46 | 1012.9 |
| 20260507151836 | 15 | 318 | 0.0 | 6.4 | 0.00 | 0.00 | 0.00 | 51 | 1012.8 |
| 20260507151333 | 15 | 297 | 11.3 | 14.5 | 0.00 | 0.00 | 0.00 | 48 | 1013.0 |
| 20260507150830 | 15 | 302 | 6.4 | 9.7 | 0.00 | 0.00 | 0.00 | 49 | 1013.4 |
| 20260507150326 | 15 | 254 | 4.8 | 9.7 | 0.00 | 0.00 | 0.00 | 47 | 1013.4 |
| 20260507145822 | 15 | 303 | 3.2 | 4.8 | 0.00 | 0.00 | 0.00 | 49 | 1013.5 |
| 20260507145319 | 14 | 246 | 4.8 | 9.7 | 0.00 | 0.00 | 0.00 | 48 | 1013.7 |
| 20260507144816 | 15 | 299 | 9.7 | 14.5 | 0.00 | 0.00 | 0.00 | 49 | 1013.6 |
| 20260507144313 | 15 | 322 | 6.4 | 9.7 | 0.00 | 0.00 | 0.00 | 50 | 1013.9 |
| 20260507143810 | 14 | 228 | 1.6 | 4.8 | 0.00 | 0.00 | 0.00 | 50 | 1013.9 |
| 20260507143307 | 13 | 353 | 4.8 | 9.7 | 0.00 | 0.00 | 0.00 | 50 | 1014.1 |
| 20260507142803 | 13 | 51 | 4.8 | 9.7 | 0.00 | 0.00 | 0.00 | 53 | 1014.2 |
| 20260507142259 | 13 | 98 | 8.0 | 12.9 | 0.00 | 0.00 | 0.00 | 52 | 1014.1 |
| 20260507141756 | 13 | 288 | 3.2 | 4.8 | 0.00 | 0.00 | 0.00 | 54 | 1014.0 |
| 20260507141254 | 13 | 46 | 8.0 | 11.3 | 0.00 | 0.00 | 0.00 | 54 | 1014.1 |
| 20260507140749 | 12 | 51 | 4.8 | 11.3 | 0.00 | 0.00 | 0.00 | 55 | 1014.3 |
| 20260507140247 | 12 | 72 | 6.4 | 12.9 | 0.00 | 0.00 | 0.00 | 57 | 1014.3 |
| 20260507135744 | 12 | 286 | 6.4 | 9.7 | 0.00 | 0.00 | 0.00 | 57 | 1014.4 |
| 20260507135241 | 12 | 279 | 4.8 | 9.7 | 0.00 | 0.00 | 0.00 | 54 | 1014.4 |
| 20260507134737 | 12 | 12 | 1.6 | 11.3 | 0.00 | 0.00 | 0.00 | 56 | 1014.6 |
| 20260507134234 | 12 | 301 | 0.0 | 4.8 | 0.00 | 0.00 | 0.00 | 56 | 1014.7 |
| 20260507133730 | 11 | 13 | 4.8 | 9.7 | 0.00 | 0.00 | 0.00 | 57 | 1014.7 |
| 20260507133227 | 11 | 18 | 4.8 | 11.3 | 0.00 | 0.00 | 0.00 | 56 | 1014.8 |
| 20260507132724 | 11 | 55 | 3.2 | 3.2 | 0.00 | 0.00 | 0.00 | 56 | 1014.6 |
| 20260507132221 | 11 | 302 | 4.8 | 6.4 | 0.00 | 0.00 | 0.00 | 57 | 1015.0 |
| 20260507131717 | 11 | 17 | 4.8 | 6.4 | 0.00 | 0.00 | 0.00 | 56 | 1014.9 |
| 20260507131215 | 11 | 345 | 4.8 | 9.7 | 0.00 | 0.00 | 0.00 | 56 | 1014.9 |
| 20260507130712 | 11 | 342 | 3.2 | 6.4 | 0.00 | 0.00 | 0.00 | 56 | 1014.7 |
| 20260507130209 | 11 | 232 | 1.6 | 3.2 | 0.00 | 0.00 | 0.00 | 59 | 1014.8 |
| 20260507125708 | 11 | 48 | 3.2 | 6.4 | 0.00 | 0.00 | 0.00 | 60 | 1015.0 |
| 20260507125205 | 11 | 115 | 0.0 | 3.2 | 0.00 | 0.00 | 0.00 | 61 | 1015.0 |
| 20260507124701 | 11 | 186 | 3.2 | 3.2 | 0.00 | 0.00 | 0.00 | 61 | 1015.1 |
| 20260507124159 | 11 | 13 | 1.6 | 4.8 | 0.00 | 0.00 | 0.00 | 61 | 1014.9 |
| 20260507123657 | 11 | 18 | 0.0 | 1.6 | 0.00 | 0.00 | 0.00 | 61 | 1015.0 |
| 20260507123154 | 11 | 124 | 0.0 | 3.2 | 0.00 | 0.00 | 0.00 | 63 | 1015.1 |
| 20260507122649 | 11 | 72 | 1.6 | 3.2 | 0.00 | 0.00 | 0.00 | 65 | 1014.8 |
| 20260507122145 | 10 | 83 | 3.2 | 4.8 | 0.00 | 0.00 | 0.00 | 65 | 1014.9 |
| 20260507121641 | 10 | 76 | 3.2 | 3.2 | 0.00 | 0.00 | 0.00 | 68 | 1014.6 |
| 20260507121137 | 10 | 89 | 1.6 | 4.8 | 0.00 | 0.00 | 0.00 | 66 | 1014.7 |
| 20260507120633 | 10 | 64 | 1.6 | 3.2 | 0.00 | 0.00 | 0.00 | 68 | 1014.9 |
| 20260507120130 | 10 | 95 | 3.2 | 4.8 | 0.00 | 0.00 | 0.00 | 66 | 1014.7 |
| 20260507115627 | 10 | 53 | 3.2 | 4.8 | 0.00 | 0.00 | 0.00 | 65 | 1014.7 |
| 20260507115122 | 10 | 74 | 3.2 | 11.3 | 0.00 | 0.00 | 0.00 | 65 | 1014.7 |
| 20260507114618 | 10 | 45 | 3.2 | 11.3 | 0.00 | 0.00 | 0.00 | 65 | 1014.5 |
| 20260507114116 | 10 | 358 | 6.4 | 9.7 | 0.00 | 0.00 | 0.00 | 66 | 1014.7 |
| 20260507113613 | 10 | 79 | 1.6 | 9.7 | 0.00 | 0.00 | 0.00 | 65 | 1014.6 |
| 20260507113110 | 10 | 3 | 3.2 | 9.7 | 0.00 | 0.00 | 0.00 | 66 | 1014.7 |
| 20260507112608 | 10 | 30 | 3.2 | 11.3 | 0.00 | 0.00 | 0.00 | 67 | 1014.3 |
| 20260507112104 | 10 | 42 | 3.2 | 4.8 | 0.00 | 0.00 | 0.00 | 69 | 1014.2 |
| 20260507111602 | 10 | 72 | 3.2 | 4.8 | 0.00 | 0.00 | 0.00 | 71 | 1014.2 |
| 20260507111058 | 10 | 60 | 3.2 | 4.8 | 0.00 | 0.00 | 0.00 | 70 | 1014.2 |
| 20260507110554 | 10 | 30 | 1.6 | 3.2 | 0.00 | 0.00 | 0.00 | 70 | 1014.2 |
| 20260507110051 | 10 | 29 | 3.2 | 4.8 | 0.00 | 0.00 | 0.00 | 71 | 1014.1 |
| 20260507105548 | 10 | 59 | 1.6 | 3.2 | 0.00 | 0.00 | 0.00 | 73 | 1014.1 |
| 20260507105044 | 10 | 20 | 0.0 | 3.2 | 0.00 | 0.00 | 0.00 | 73 | 1014.3 |
| 20260507104542 | 11 | 10 | 1.6 | 3.2 | 0.00 | 0.00 | 0.00 | 73 | 1014.0 |
| 20260507104038 | 11 | 347 | 1.6 | 6.4 | 0.00 | 0.00 | 0.00 | 74 | 1014.1 |
| 20260507103534 | 11 | 343 | 6.4 | 6.4 | 0.00 | 0.00 | 0.00 | 73 | 1013.9 |
| 20260507103031 | 11 | 1 | 4.8 | 6.4 | 0.00 | 0.00 | 0.00 | 74 | 1013.9 |
| 20260507102527 | 11 | 348 | 3.2 | 9.7 | 0.00 | 0.00 | 0.00 | 75 | 1013.8 |
| 20260507102023 | 11 | 330 | 4.8 | 6.4 | 0.00 | 0.00 | 0.00 | 75 | 1013.8 |
| 20260507101519 | 11 | 60 | 1.6 | 4.8 | 0.00 | 0.00 | 0.00 | 76 | 1013.7 |
| 20260507101016 | 11 | 309 | 1.6 | 4.8 | 0.00 | 0.00 | 0.00 | 76 | 1013.4 |
| 20260507100513 | 11 | 335 | 4.8 | 12.9 | 0.00 | 0.00 | 0.00 | 75 | 1013.6 |
| 20260507100011 | 11 | 347 | 4.8 | 11.3 | 0.00 | 0.00 | 0.00 | 78 | 1013.6 |
| 20260507095509 | 11 | 316 | 4.8 | 4.8 | 0.00 | 0.00 | 0.00 | 78 | 1013.5 |
| 20260507095005 | 11 | 0 | 0.0 | 4.8 | 0.00 | 0.00 | 0.00 | 79 | 1013.6 |
| 20260507094501 | 11 | 349 | 6.4 | 6.4 | 0.00 | 0.00 | 0.00 | 79 | 1013.4 |
| 20260507093958 | 11 | 339 | 3.2 | 4.8 | 0.00 | 0.00 | 0.00 | 79 | 1013.5 |
| 20260507093456 | 11 | 56 | 6.4 | 6.4 | 0.00 | 0.00 | 0.00 | 79 | 1013.5 |
| 20260507092954 | 11 | 286 | 1.6 | 1.6 | 0.00 | 0.00 | 0.00 | 79 | 1013.4 |
| 20260507092450 | 11 | 348 | 3.2 | 3.2 | 0.00 | 0.00 | 0.00 | 79 | 1013.5 |
| 20260507091947 | 11 | 34 | 1.6 | 1.6 | 0.00 | 0.00 | 0.00 | 79 | 1013.4 |
| 20260507091444 | 11 | 343 | 0.0 | 0.0 | 0.00 | 0.00 | 0.00 | 79 | 1013.2 |
| 20260507090940 | 11 | 53 | 0.0 | 1.6 | 0.00 | 0.00 | 0.00 | 79 | 1013.2 |
| 20260507090436 | 11 | 99 | 0.0 | 1.6 | 0.00 | 0.00 | 0.00 | 78 | 1013.2 |
| 20260507085932 | 11 | 91 | 0.0 | 1.6 | 0.00 | 0.00 | 0.00 | 82 | 1013.1 |
| 20260507085430 | 11 | 91 | 1.6 | 3.2 | 0.00 | 0.00 | 0.00 | 80 | 1013.4 |
| 20260507084927 | 11 | 303 | 0.0 | 0.0 | 0.00 | 0.00 | 0.00 | 79 | 1013.2 |
| 20260507084424 | 11 | 69 | 0.0 | 1.6 | 0.00 | 0.00 | 0.00 | 79 | 1013.4 |
| 20260507083921 | 11 | 312 | 1.6 | 3.2 | 0.00 | 0.00 | 0.00 | 78 | 1013.5 |
| 20260507083417 | 11 | 301 | 3.2 | 4.8 | 0.00 | 0.00 | 0.00 | 79 | 1013.2 |
| 20260507082913 | 11 | 314 | 3.2 | 3.2 | 0.00 | 0.00 | 0.00 | 83 | 1013.4 |
| 20260507082409 | 11 | 222 | 0.0 | 1.6 | 0.00 | 0.00 | 0.00 | 82 | 1013.4 |
| 20260507081906 | 11 | 139 | 0.0 | 0.0 | 0.00 | 0.00 | 0.00 | 82 | 1013.2 |
| 20260507081402 | 11 | 141 | 0.0 | 0.0 | 0.00 | 0.00 | 0.00 | 82 | 1013.2 |
| 20260507080859 | 11 | 223 | 0.0 | 1.6 | 0.00 | 0.00 | 0.00 | 82 | 1013.5 |
| 20260507080355 | 11 | 146 | 0.0 | 1.6 | 0.00 | 0.00 | 0.00 | 82 | 1013.2 |
| 20260507075851 | 11 | 313 | 1.6 | 3.2 | 0.00 | 0.00 | 0.00 | 83 | 1013.4 |
| 20260507075347 | 11 | 135 | 0.0 | 1.6 | 0.00 | 0.00 | 0.00 | 83 | 1013.2 |
| 20260507074843 | 11 | 97 | 1.6 | 3.2 | 0.00 | 0.00 | 0.00 | 84 | 1013.0 |
| 20260507074341 | 11 | 217 | 0.0 | 0.0 | 0.00 | 0.00 | 0.00 | 83 | 1013.0 |
| 20260507073838 | 11 | 230 | 0.0 | 1.6 | 0.00 | 0.00 | 0.00 | 82 | 1012.9 |
| 20260507073335 | 11 | 252 | 1.6 | 1.6 | 0.00 | 0.00 | 0.00 | 80 | 1012.9 |
| 20260507072832 | 11 | 287 | 0.0 | 0.0 | 0.00 | 0.00 | 0.00 | 79 | 1012.8 |
| 20260507072329 | 11 | 271 | 0.0 | 0.0 | 0.00 | 0.00 | 0.00 | 79 | 1012.9 |
| 20260507071827 | 11 | 297 | 1.6 | 1.6 | 0.00 | 0.00 | 0.00 | 80 | 1013.1 |
| 20260507071324 | 11 | 292 | 0.0 | 1.6 | 0.00 | 0.00 | 0.00 | 83 | 1012.9 |
| 20260507070820 | 11 | 149 | 0.0 | 0.0 | 0.00 | 0.00 | 0.00 | 80 | 1013.0 |
| 20260507070317 | 11 | 264 | 0.0 | 0.0 | 0.00 | 0.00 | 0.00 | 80 | 1013.0 |
| 20260507065814 | 11 | 151 | 0.0 | 0.0 | 0.00 | 0.00 | 0.00 | 80 | 1012.9 |
| 20260507065310 | 11 | 226 | 0.0 | 0.0 | 0.00 | 0.00 | 0.00 | 82 | 1013.0 |
| 20260507064808 | 11 | 151 | 0.0 | 0.0 | 0.00 | 0.00 | 0.00 | 82 | 1013.0 |
| 20260507064307 | 11 | 168 | 0.0 | 0.0 | 0.00 | 0.00 | 0.00 | 85 | 1013.0 |
| 20260507063804 | 11 | 164 | 0.0 | 0.0 | 0.00 | 0.00 | 0.00 | 85 | 1013.2 |
| 20260507063301 | 11 | 248 | 0.0 | 0.0 | 0.00 | 0.00 | 0.00 | 83 | 1013.5 |
| 20260507062757 | 11 | 276 | 0.0 | 0.0 | 0.00 | 0.00 | 0.00 | 84 | 1013.4 |
| 20260507062254 | 11 | 112 | 0.0 | 0.0 | 0.00 | 0.00 | 0.00 | 84 | 1013.7 |
| 20260507061753 | 11 | 116 | 0.0 | 0.0 | 0.00 | 0.00 | 0.00 | 84 | 1013.7 |
| 20260507061250 | 11 | 153 | 0.0 | 0.0 | 0.00 | 0.00 | 0.00 | 85 | 1013.7 |
| 20260507060748 | 11 | 107 | 0.0 | 0.0 | 0.00 | 0.00 | 0.00 | 82 | 1014.1 |
| 20260507060244 | 11 | 66 | 0.0 | 0.0 | 0.00 | 0.00 | 0.00 | 81 | 1013.8 |
| 20260507055741 | 11 | 114 | 0.0 | 0.0 | 0.00 | 0.00 | 0.00 | 83 | 1013.8 |
| 20260507055236 | 11 | 97 | 0.0 | 0.0 | 0.00 | 0.00 | 0.00 | 83 | 1013.8 |
| 20260507054733 | 11 | 90 | 0.0 | 0.0 | 0.00 | 0.00 | 0.00 | 82 | 1013.8 |
| 20260507054230 | 11 | 81 | 0.0 | 0.0 | 0.00 | 0.00 | 0.00 | 82 | 1014.0 |
| 20260507053727 | 11 | 59 | 1.6 | 6.4 | 0.00 | 0.00 | 0.00 | 82 | 1013.8 |
| 20260507053225 | 11 | 101 | 1.6 | 1.6 | 0.00 | 0.00 | 0.00 | 84 | 1013.6 |
| 20260507052724 | 11 | 105 | 1.6 | 3.2 | 0.00 | 0.00 | 0.00 | 84 | 1013.8 |
| 20260507052219 | 11 | 4 | 6.4 | 9.7 | 0.00 | 0.00 | 0.00 | 84 | 1013.7 |
| 20260507051717 | 11 | 32 | 1.6 | 4.8 | 0.00 | 0.00 | 0.00 | 83 | 1013.7 |
| 20260507051214 | 11 | 58 | 0.0 | 1.6 | 0.00 | 0.00 | 0.00 | 84 | 1013.6 |
| 20260507050711 | 11 | 56 | 1.6 | 4.8 | 0.00 | 0.00 | 0.00 | 83 | 1013.4 |
| 20260507050208 | 11 | 49 | 1.6 | 4.8 | 0.00 | 0.00 | 0.00 | 83 | 1013.4 |
| 20260507045704 | 11 | 65 | 3.2 | 4.8 | 0.00 | 0.00 | 0.00 | 84 | 1013.1 |
| 20260507045201 | 11 | 35 | 3.2 | 4.8 | 0.00 | 0.00 | 0.00 | 83 | 1013.4 |
| 20260507044658 | 11 | 88 | 3.2 | 4.8 | 0.00 | 0.00 | 0.00 | 83 | 1013.7 |
| 20260507044154 | 12 | 88 | 1.6 | 3.2 | 0.00 | 0.00 | 0.00 | 83 | 1013.4 |
| 20260507043651 | 12 | 66 | 3.2 | 6.4 | 0.00 | 0.00 | 0.00 | 83 | 1013.2 |
| 20260507043148 | 12 | 37 | 3.2 | 4.8 | 0.00 | 0.00 | 0.00 | 84 | 1013.4 |
| 20260507042644 | 12 | 21 | 1.6 | 4.8 | 0.00 | 0.00 | 0.00 | 84 | 1013.2 |
| 20260507042139 | 12 | 36 | 6.4 | 9.7 | 0.00 | 0.00 | 0.00 | 85 | 1013.1 |
| 20260507041636 | 12 | 41 | 4.8 | 9.7 | 0.00 | 0.00 | 0.00 | 85 | 1013.5 |
| 20260507041132 | 12 | 64 | 4.8 | 9.7 | 0.00 | 0.00 | 0.00 | 85 | 1012.8 |
| 20260507040630 | 12 | 41 | 4.8 | 12.9 | 0.00 | 0.00 | 0.00 | 85 | 1012.7 |
| 20260507040126 | 12 | 101 | 3.2 | 9.7 | 0.00 | 0.20 | 0.20 | 84 | 1012.8 |
| 20260507035622 | 12 | 13 | 4.8 | 16.1 | 0.00 | 0.20 | 0.20 | 84 | 1013.5 |
| 20260507035118 | 12 | 26 | 9.7 | 17.7 | 0.00 | 0.20 | 0.20 | 84 | 1013.6 |
| 20260507034615 | 12 | 42 | 4.8 | 6.4 | 0.00 | 0.20 | 0.20 | 85 | 1013.5 |
| 20260507034113 | 12 | 51 | 3.2 | 6.4 | 0.00 | 0.20 | 0.20 | 84 | 1013.2 |
| 20260507033611 | 13 | 89 | 1.6 | 4.8 | 0.00 | 0.20 | 0.20 | 84 | 1012.7 |
| 20260507033108 | 13 | 69 | 1.6 | 3.2 | 0.00 | 0.20 | 0.20 | 84 | 1012.8 |
| 20260507032605 | 13 | 132 | 0.0 | 4.8 | 0.00 | 0.20 | 0.20 | 83 | 1013.1 |
| 20260507032101 | 13 | 124 | 0.0 | 0.0 | 0.00 | 0.20 | 0.20 | 82 | 1013.0 |
| 20260507031558 | 13 | 130 | 3.2 | 6.4 | 0.00 | 0.20 | 0.20 | 82 | 1012.8 |
| 20260507031055 | 13 | 144 | 1.6 | 4.8 | 0.00 | 0.20 | 0.20 | 82 | 1013.0 |
| 20260507030551 | 13 | 183 | 6.4 | 6.4 | 0.00 | 0.20 | 0.20 | 82 | 1013.4 |
| 20260507030049 | 13 | 58 | 1.6 | 3.2 | 0.00 | 0.20 | 0.20 | 82 | 1013.4 |
| 20260507025546 | 13 | 37 | 1.6 | 3.2 | 0.00 | 0.20 | 0.20 | 83 | 1013.0 |
| 20260507025038 | 13 | 88 | 1.6 | 6.4 | 0.00 | 0.20 | 0.20 | 82 | 1012.7 |
| 20260507024535 | 13 | 20 | 1.6 | 4.8 | 0.00 | 0.20 | 0.20 | 82 | 1012.9 |
| 20260507024032 | 13 | 320 | 1.6 | 3.2 | 0.00 | 0.20 | 0.20 | 82 | 1012.8 |
| 20260507023528 | 13 | 25 | 4.8 | 11.3 | 0.00 | 0.20 | 0.20 | 82 | 1012.8 |
| 20260507023026 | 13 | 128 | 3.2 | 4.8 | 0.00 | 0.20 | 0.20 | 83 | 1012.5 |
| 20260507022522 | 13 | 94 | 1.6 | 3.2 | 0.00 | 0.20 | 0.20 | 82 | 1012.9 |
| 20260507022017 | 13 | 157 | 1.6 | 3.2 | 0.00 | 0.20 | 0.20 | 83 | 1012.7 |
| 20260507021514 | 13 | 140 | 1.6 | 4.8 | 0.00 | 0.20 | 0.20 | 82 | 1012.8 |
| 20260507021010 | 13 | 102 | 1.6 | 6.4 | 0.00 | 0.20 | 0.20 | 82 | 1012.6 |
| 20260507020508 | 14 | 85 | 4.8 | 14.5 | 0.00 | 0.20 | 0.20 | 82 | 1012.5 |
| 20260507020004 | 14 | 331 | 0.0 | 4.8 | 0.00 | 0.20 | 0.20 | 83 | 1012.4 |
| 20260507015503 | 14 | 92 | 0.0 | 11.3 | 0.00 | 0.20 | 0.20 | 83 | 1012.0 |
| 20260507015001 | 14 | 89 | 1.6 | 3.2 | 0.00 | 0.20 | 0.20 | 84 | 1012.3 |
| 20260507014457 | 14 | 33 | 3.2 | 3.2 | 0.00 | 0.20 | 0.20 | 83 | 1012.1 |
| 20260507013953 | 14 | 47 | 0.0 | 3.2 | 0.00 | 0.20 | 0.20 | 82 | 1012.2 |
| 20260507013449 | 14 | 21 | 3.2 | 4.8 | 0.00 | 0.20 | 0.20 | 83 | 1012.1 |
| 20260507012947 | 14 | 28 | 1.6 | 3.2 | 0.00 | 0.20 | 0.20 | 84 | 1012.2 |
| 20260507012443 | 14 | 66 | 3.2 | 6.4 | 0.00 | 0.20 | 0.20 | 84 | 1012.3 |
| 20260507011940 | 14 | 6 | 3.2 | 6.4 | 0.00 | 0.20 | 0.20 | 84 | 1012.5 |
| 20260507011437 | 15 | 38 | 3.2 | 11.3 | 0.00 | 0.20 | 0.20 | 83 | 1012.3 |
| 20260507010937 | 15 | 24 | 3.2 | 6.4 | 0.00 | 0.20 | 0.20 | 84 | 1011.9 |
| 20260507010432 | 15 | 29 | 3.2 | 4.8 | 0.00 | 0.20 | 0.20 | 85 | 1012.0 |
| 20260507005929 | 15 | 32 | 3.2 | 3.2 | 0.00 | 0.20 | 0.20 | 84 | 1012.0 |
| 20260507005427 | 15 | 93 | 3.2 | 4.8 | 0.00 | 0.20 | 0.20 | 86 | 1012.0 |
| 20260507004923 | 15 | 58 | 4.8 | 6.4 | 0.00 | 0.20 | 0.20 | 85 | 1011.8 |
| 20260507004420 | 15 | 69 | 3.2 | 3.2 | 0.00 | 0.20 | 0.20 | 84 | 1011.9 |
| 20260507003917 | 15 | 65 | 1.6 | 1.6 | 0.00 | 0.20 | 0.20 | 85 | 1012.1 |
| 20260507003412 | 15 | 49 | 4.8 | 4.8 | 0.00 | 0.20 | 0.20 | 84 | 1012.1 |
| 20260507002908 | 16 | 40 | 1.6 | 4.8 | 0.00 | 0.20 | 0.20 | 83 | 1012.3 |
| 20260507002404 | 16 | 70 | 3.2 | 6.4 | 0.00 | 0.20 | 0.20 | 83 | 1012.2 |
| 20260507001902 | 16 | 70 | 1.6 | 3.2 | 0.00 | 0.20 | 0.20 | 83 | 1012.0 |
| 20260507001358 | 16 | 62 | 0.0 | 4.8 | 0.00 | 0.20 | 0.20 | 83 | 1011.7 |
| 20260507000855 | 16 | 64 | 1.6 | 4.8 | 0.00 | 0.20 | 0.20 | 84 | 1011.8 |
| 20260507000350 | 16 | 4 | 1.6 | 4.8 | 0.00 | 0.20 | 0.20 | 83 | 1011.9 |
| 20260506235847 | 16 | 42 | 1.6 | 3.2 | 0.00 | 0.20 | 0.20 | 83 | 1011.9 |
| 20260506235344 | 16 | 84 | 1.6 | 1.6 | 0.00 | 0.20 | 0.20 | 83 | 1012.0 |
| 20260506234840 | 16 | 341 | 1.6 | 3.2 | 0.00 | 0.20 | 0.20 | 83 | 1011.9 |
| 20260506234338 | 16 | 333 | 6.4 | 6.4 | 0.00 | 0.20 | 0.20 | 82 | 1011.6 |
| 20260506233835 | 16 | 1 | 4.8 | 6.4 | 0.00 | 0.20 | 0.20 | 84 | 1011.6 |
| 20260506233331 | 16 | 98 | 1.6 | 4.8 | 0.00 | 0.20 | 0.20 | 83 | 1011.7 |
| 20260506232828 | 16 | 93 | 3.2 | 4.8 | 0.00 | 0.20 | 0.20 | 85 | 1011.5 |
| 20260506232324 | 16 | 81 | 0.0 | 1.6 | 0.00 | 0.20 | 0.20 | 85 | 1011.5 |
| 20260506231820 | 16 | 82 | 1.6 | 4.8 | 0.00 | 0.20 | 0.20 | 84 | 1011.3 |
| 20260506231318 | 17 | 51 | 8.0 | 14.5 | 0.00 | 0.20 | 0.20 | 84 | 1011.1 |
| 20260506230815 | 17 | 108 | 1.6 | 4.8 | 0.00 | 0.20 | 0.20 | 83 | 1010.9 |
| 20260506230312 | 17 | 272 | 0.0 | 3.2 | 0.00 | 0.20 | 0.20 | 84 | 1010.9 |
| 20260506225808 | 17 | 106 | 4.8 | 11.3 | 0.00 | 0.20 | 0.20 | 83 | 1010.8 |
| 20260506225306 | 17 | 213 | 3.2 | 3.2 | 0.00 | 0.20 | 0.20 | 85 | 1010.7 |
| 20260506224802 | 17 | 153 | 3.2 | 3.2 | 0.00 | 0.20 | 0.20 | 84 | 1010.6 |
| 20260506224259 | 17 | 111 | 4.8 | 11.3 | 0.00 | 0.20 | 0.20 | 83 | 1010.7 |
| 20260506223756 | 17 | 58 | 1.6 | 3.2 | 0.00 | 0.20 | 0.20 | 84 | 1010.5 |
| 20260506223251 | 17 | 97 | 3.2 | 4.8 | 0.00 | 0.20 | 0.20 | 82 | 1010.5 |
| 20260506222748 | 18 | 316 | 3.2 | 6.4 | 0.00 | 0.20 | 0.20 | 81 | 1010.4 |
| 20260506222244 | 18 | 265 | 4.8 | 6.4 | 0.00 | 0.20 | 0.20 | 81 | 1010.4 |
| 20260506221742 | 18 | 336 | 14.5 | 16.1 | 0.00 | 0.20 | 0.20 | 80 | 1010.4 |
| 20260506221240 | 18 | 335 | 3.2 | 20.9 | 0.00 | 0.20 | 0.20 | 80 | 1010.1 |
| 20260506220737 | 18 | 357 | 4.8 | 6.4 | 0.00 | 0.20 | 0.20 | 80 | 1010.0 |
| 20260506220231 | 18 | 350 | 4.8 | 12.9 | 0.00 | 0.20 | 0.20 | 79 | 1010.2 |
| 20260506215729 | 19 | 344 | 4.8 | 14.5 | 0.00 | 0.20 | 0.20 | 78 | 1010.2 |
| 20260506215224 | 20 | 359 | 9.7 | 16.1 | 0.00 | 0.20 | 0.20 | 75 | 1010.2 |
| 20260506214721 | 20 | 169 | 1.6 | 9.7 | 0.00 | 0.20 | 0.20 | 73 | 1010.1 |
| 20260506214218 | 20 | 282 | 3.2 | 9.7 | 0.00 | 0.20 | 0.20 | 73 | 1009.5 |
| 20260506213716 | 20 | 5 | 0.0 | 1.6 | 0.00 | 0.20 | 0.20 | 73 | 1009.4 |
| 20260506213213 | 20 | 232 | 3.2 | 11.3 | 0.00 | 0.20 | 0.20 | 73 | 1009.3 |
| 20260506212710 | 20 | 280 | 6.4 | 14.5 | 0.00 | 0.20 | 0.20 | 71 | 1009.5 |
| 20260506212206 | 21 | 244 | 8.0 | 9.7 | 0.00 | 0.20 | 0.20 | 71 | 1009.2 |